createdAt,value
2019-04-04T00:02:17.083Z,21.50
2019-04-04T00:04:47.829Z,21.90
2019-04-04T00:07:16.028Z,23.57
2019-04-04T00:09:44.147Z,22.70
2019-04-04T00:12:12.264Z,25.20
2019-04-04T00:14:43.373Z,19.90
2019-04-04T00:17:10.352Z,21.87
2019-04-04T00:19:38.494Z,25.67
2019-04-04T00:22:06.660Z,21.23
2019-04-04T00:24:34.827Z,21.90
2019-04-04T00:27:03.011Z,22.20
2019-04-04T00:29:31.142Z,23.30
2019-04-04T00:32:01.399Z,26.30
2019-04-04T00:34:29.632Z,21.47
2019-04-04T00:37:04.849Z,25.33
2019-04-04T00:39:33.530Z,21.57
2019-04-04T00:42:01.638Z,21.20
2019-04-04T00:44:29.763Z,21.00
2019-04-04T00:46:57.861Z,21.17
2019-04-04T00:49:25.987Z,21.30
2019-04-04T00:51:54.106Z,21.48
2019-04-04T00:54:22.281Z,21.60
2019-04-04T00:56:51.935Z,19.12
2019-04-04T00:59:22.764Z,20.77
2019-04-04T01:01:49.962Z,23.50
2019-04-04T01:04:18.080Z,23.70
2019-04-04T01:06:46.183Z,21.00
2019-04-04T01:09:14.335Z,22.40
2019-04-04T01:11:42.435Z,23.37
2019-04-04T01:14:10.554Z,25.48
2019-04-04T01:16:40.302Z,23.13
2019-04-04T01:19:09.970Z,24.32
2019-04-04T01:21:38.275Z,22.37
2019-04-04T01:24:06.581Z,24.10
2019-04-04T01:26:35.274Z,26.00
2019-04-04T01:29:05.764Z,20.80
2019-04-04T01:31:34.261Z,23.55
2019-04-04T01:34:02.356Z,24.37
2019-04-04T01:36:30.473Z,23.20
2019-04-04T01:39:00.181Z,24.60
2019-04-04T01:41:29.212Z,21.07
2019-04-04T01:44:04.911Z,22.43
2019-04-04T01:46:27.903Z,33.97
2019-04-04T01:48:57.761Z,30.10
2019-04-04T01:51:26.130Z,21.37
2019-04-04T01:53:54.315Z,21.23
2019-04-04T01:56:22.427Z,20.47
2019-04-04T01:58:50.567Z,21.63
2019-04-04T02:01:18.700Z,21.03
2019-04-04T02:03:46.831Z,23.10
2019-04-04T02:06:14.952Z,23.47
2019-04-04T02:08:43.744Z,25.20
2019-04-04T02:11:11.881Z,20.27
2019-04-04T02:13:40.893Z,22.13
2019-04-04T02:16:09.806Z,21.87
2019-04-04T02:18:37.987Z,22.07
2019-04-04T02:21:06.298Z,24.63
2019-04-04T02:23:34.452Z,22.10
2019-04-04T02:26:05.151Z,19.77
2019-04-04T02:28:32.984Z,22.33
2019-04-04T02:31:01.277Z,22.17
2019-04-04T02:33:31.966Z,24.40
2019-04-04T02:35:59.265Z,21.97
2019-04-04T02:38:28.280Z,20.50
2019-04-04T02:40:56.537Z,21.30
2019-04-04T02:43:27.229Z,22.42
2019-04-04T02:45:54.609Z,21.43
2019-04-04T02:48:24.499Z,20.23
2019-04-04T02:50:52.901Z,20.87
2019-04-04T02:53:22.614Z,26.17
2019-04-04T02:55:50.744Z,20.57
2019-04-04T02:58:19.087Z,21.97
2019-04-04T03:00:47.341Z,22.83
2019-04-04T03:03:15.572Z,23.50
2019-04-04T03:05:43.814Z,21.35
2019-04-04T03:08:11.975Z,20.87
2019-04-04T03:10:40.903Z,21.23
2019-04-04T03:13:09.001Z,20.03
2019-04-04T03:15:40.826Z,20.53
2019-04-04T03:18:06.950Z,23.57
2019-04-04T03:20:35.058Z,20.33
2019-04-04T03:23:03.172Z,21.83
2019-04-04T03:25:31.297Z,24.95
2019-04-04T03:27:59.657Z,21.65
2019-04-04T03:30:27.776Z,22.30
2019-04-04T03:32:55.985Z,19.80
2019-04-04T03:35:28.276Z,21.13
2019-04-04T03:37:54.064Z,20.75
2019-04-04T03:40:24.627Z,22.75
2019-04-04T03:42:52.030Z,23.47
2019-04-04T03:45:20.265Z,19.73
2019-04-04T03:47:48.382Z,19.20
2019-04-04T03:50:16.491Z,20.77
2019-04-04T03:52:44.744Z,22.50
2019-04-04T03:55:12.973Z,21.75
2019-04-04T03:57:41.157Z,21.45
2019-04-04T04:00:09.466Z,19.27
2019-04-04T04:02:37.595Z,21.20
2019-04-04T04:05:24.058Z,20.43
2019-04-04T04:07:52.242Z,20.70
2019-04-04T04:10:20.443Z,19.53
2019-04-04T04:12:48.677Z,19.48
2019-04-04T04:15:17.002Z,20.67
2019-04-04T04:17:46.521Z,19.25
2019-04-04T04:20:14.793Z,22.67
2019-04-04T04:22:42.901Z,22.27
2019-04-04T04:25:13.541Z,20.10
2019-04-04T04:27:41.412Z,20.87
2019-04-04T04:30:10.038Z,20.03
2019-04-04T04:32:38.149Z,20.90
2019-04-04T04:35:08.575Z,21.30
2019-04-04T04:37:36.171Z,20.33
2019-04-04T04:40:05.153Z,19.17
2019-04-04T04:42:33.288Z,19.43
2019-04-04T04:45:01.727Z,18.57
2019-04-04T04:47:29.951Z,19.57
2019-04-04T04:49:58.157Z,20.03
2019-04-04T04:52:26.304Z,20.32
2019-04-04T04:54:54.659Z,21.68
2019-04-04T04:57:29.719Z,19.17
2019-04-04T04:59:53.522Z,17.97
2019-04-04T05:02:22.366Z,18.00
2019-04-04T05:04:51.136Z,19.90
2019-04-04T05:07:19.400Z,19.60
2019-04-04T05:09:47.511Z,22.27
2019-04-04T05:12:15.654Z,22.30
2019-04-04T05:14:47.621Z,24.92
2019-04-04T05:17:17.554Z,24.50
2019-04-04T05:19:45.784Z,19.37
2019-04-04T05:22:13.888Z,21.03
2019-04-04T05:24:42.001Z,20.87
2019-04-04T05:27:10.248Z,20.97
2019-04-04T05:29:38.514Z,19.67
2019-04-04T05:32:06.763Z,19.73
2019-04-04T05:34:35.006Z,22.27
2019-04-04T05:37:03.254Z,20.07
2019-04-04T05:39:31.571Z,21.50
2019-04-04T05:42:00.479Z,20.53
2019-04-04T05:44:29.361Z,23.30
2019-04-04T05:46:58.365Z,23.87
2019-04-04T05:49:26.568Z,20.37
2019-04-04T05:51:54.755Z,21.70
2019-04-04T05:54:22.882Z,20.80
2019-04-04T05:56:51.181Z,21.53
2019-04-04T05:59:19.318Z,19.77
2019-04-04T06:01:47.488Z,23.03
2019-04-04T06:04:17.245Z,20.53
2019-04-04T06:06:45.518Z,21.43
2019-04-04T06:09:14.717Z,19.03
2019-04-04T06:11:43.079Z,20.82
2019-04-04T06:14:11.192Z,18.50
2019-04-04T06:16:39.311Z,19.45
2019-04-04T06:19:07.500Z,20.07
2019-04-04T06:21:35.797Z,22.53
2019-04-04T06:24:04.122Z,22.47
2019-04-04T06:26:32.246Z,19.13
2019-04-04T06:29:00.360Z,19.77
2019-04-04T06:31:30.862Z,21.03
2019-04-04T06:33:58.386Z,20.27
2019-04-04T06:36:26.532Z,20.80
2019-04-04T06:38:54.749Z,20.20
2019-04-04T06:41:22.925Z,23.67
2019-04-04T06:43:51.039Z,18.35
2019-04-04T06:46:22.623Z,19.67
2019-04-04T06:48:50.071Z,25.80
2019-04-04T06:51:18.236Z,17.47
2019-04-04T06:53:47.076Z,19.50
2019-04-04T06:56:15.507Z,18.48
2019-04-04T06:58:43.664Z,17.17
2019-04-04T07:01:11.808Z,18.42
2019-04-04T07:03:39.978Z,17.03
2019-04-04T07:06:10.253Z,17.07
2019-04-04T07:08:38.041Z,18.95
2019-04-04T07:11:15.623Z,19.33
2019-04-04T07:13:42.425Z,22.60
2019-04-04T07:16:07.983Z,16.47
2019-04-04T07:18:35.896Z,17.70
2019-04-04T07:21:04.097Z,16.07
2019-04-04T07:23:32.303Z,17.30
2019-04-04T07:26:00.488Z,19.43
2019-04-04T07:28:31.010Z,16.07
2019-04-04T07:31:01.363Z,16.93
2019-04-04T07:33:29.116Z,16.10
2019-04-04T07:35:57.222Z,18.52
2019-04-04T07:38:28.690Z,18.82
2019-04-04T07:40:57.431Z,17.62
2019-04-04T07:43:25.576Z,20.07
2019-04-04T07:45:55.279Z,17.70
2019-04-04T07:48:23.557Z,15.83
2019-04-04T07:50:51.705Z,20.73
2019-04-04T07:53:20.006Z,23.13
2019-04-04T07:55:48.195Z,21.13
2019-04-04T07:58:16.341Z,20.45
2019-04-04T08:00:44.466Z,16.20
2019-04-04T08:03:12.576Z,19.55
2019-04-04T08:05:42.390Z,16.53
2019-04-04T08:08:10.499Z,19.67
2019-04-04T08:10:40.355Z,15.97
2019-04-04T08:13:08.469Z,18.63
2019-04-04T08:15:36.651Z,20.23
2019-04-04T08:18:06.473Z,17.43
2019-04-04T08:20:34.600Z,17.00
2019-04-04T08:23:02.799Z,16.60
2019-04-04T08:25:30.920Z,17.03
2019-04-04T08:27:59.389Z,53.93
2019-04-04T08:30:28.335Z,12.80
2019-04-04T08:32:56.511Z,12.20
2019-04-04T08:35:24.626Z,19.30
2019-04-04T08:37:52.904Z,15.13
2019-04-04T08:40:21.123Z,19.40
2019-04-04T08:42:49.291Z,18.98
2019-04-04T08:45:17.416Z,16.30
2019-04-04T08:47:45.507Z,16.07
2019-04-04T08:50:13.729Z,17.33
2019-04-04T08:52:42.563Z,17.77
2019-04-04T08:55:10.859Z,16.53
2019-04-04T08:57:38.986Z,17.37
2019-04-04T09:00:07.773Z,18.33
2019-04-04T09:02:35.882Z,18.27
2019-04-04T09:05:11.881Z,31.95
2019-04-04T09:07:35.238Z,19.70
2019-04-04T09:10:05.803Z,21.40
2019-04-04T09:12:34.065Z,18.30
2019-04-04T09:15:03.295Z,22.75
2019-04-04T09:17:31.523Z,24.73
2019-04-04T09:19:59.744Z,25.30
2019-04-04T09:22:27.851Z,16.67
2019-04-04T09:24:55.996Z,17.77
2019-04-04T09:27:24.111Z,16.03
2019-04-04T09:29:52.208Z,23.23
2019-04-04T09:32:20.484Z,16.10
2019-04-04T09:34:51.658Z,14.40
2019-04-04T09:37:22.809Z,17.10
2019-04-04T09:39:54.186Z,14.50
2019-04-04T09:42:26.688Z,17.33
2019-04-04T09:45:00.835Z,14.43
2019-04-04T09:47:28.974Z,31.33
2019-04-04T09:49:57.146Z,48.80
2019-04-04T09:52:25.339Z,17.73
2019-04-04T09:54:53.543Z,16.77
2019-04-04T09:57:21.681Z,20.97
2019-04-04T09:59:50.450Z,24.73
2019-04-04T10:02:18.577Z,31.60
2019-04-04T10:04:46.784Z,19.83
2019-04-04T10:07:14.926Z,16.67
2019-04-04T10:09:43.058Z,18.23
2019-04-04T10:12:11.223Z,21.23
2019-04-04T10:14:40.880Z,15.57
2019-04-04T10:17:09.032Z,21.48
2019-04-04T10:19:37.156Z,22.50
2019-04-04T10:22:05.276Z,14.65
2019-04-04T10:24:33.512Z,15.83
2019-04-04T10:27:01.676Z,16.93
2019-04-04T10:29:29.923Z,17.30
2019-04-04T10:31:58.030Z,16.53
2019-04-04T10:34:28.350Z,25.33
2019-04-04T10:36:56.014Z,18.27
2019-04-04T10:39:29.317Z,20.37
2019-04-04T10:41:54.112Z,28.97
2019-04-04T10:44:22.301Z,22.57
2019-04-04T10:46:50.418Z,24.77
2019-04-04T10:49:20.429Z,23.07
2019-04-04T10:51:48.723Z,25.10
2019-04-04T10:54:16.841Z,18.80
2019-04-04T10:56:44.952Z,19.87
2019-04-04T10:59:13.115Z,21.97
2019-04-04T11:01:42.059Z,19.10
2019-04-04T11:04:10.170Z,62.20
2019-04-04T11:06:38.383Z,39.30
2019-04-04T11:09:07.172Z,21.83
2019-04-04T11:11:35.304Z,25.93
2019-04-04T11:14:03.499Z,29.13
2019-04-04T11:16:31.625Z,22.13
2019-04-04T11:18:59.744Z,23.12
2019-04-04T11:21:27.890Z,22.22
2019-04-04T11:23:56.108Z,23.40
2019-04-04T11:26:24.284Z,27.10
2019-04-04T11:28:52.500Z,27.33
2019-04-04T11:31:20.724Z,27.13
2019-04-04T11:33:48.872Z,25.43
2019-04-04T11:36:17.060Z,24.47
2019-04-04T11:38:45.196Z,25.77
2019-04-04T11:41:13.411Z,25.70
2019-04-04T11:43:41.601Z,24.27
2019-04-04T11:46:09.739Z,20.63
2019-04-04T11:48:44.426Z,20.03
2019-04-04T11:51:12.620Z,19.37
2019-04-04T11:53:40.776Z,20.73
2019-04-04T11:56:08.974Z,21.60
2019-04-04T11:58:37.325Z,17.43
2019-04-04T12:01:07.092Z,18.17
2019-04-04T12:03:35.320Z,19.37
2019-04-04T12:06:05.249Z,17.33
2019-04-04T12:08:33.377Z,25.50
2019-04-04T12:11:01.633Z,23.30
2019-04-04T12:13:29.997Z,26.03
2019-04-04T12:15:58.155Z,19.95
2019-04-04T12:18:26.284Z,20.50
2019-04-04T12:20:55.232Z,20.87
2019-04-04T12:23:23.378Z,21.83
2019-04-04T12:25:52.058Z,19.93
2019-04-04T12:28:24.498Z,23.53
2019-04-04T12:30:52.601Z,19.80
2019-04-04T12:33:31.116Z,26.30
2019-04-04T12:35:59.500Z,23.50
2019-04-04T12:38:27.702Z,23.63
2019-04-04T12:40:55.821Z,25.27
2019-04-04T12:43:23.959Z,26.73
2019-04-04T12:45:52.331Z,30.33
2019-04-04T12:48:20.911Z,31.87
2019-04-04T12:50:49.046Z,30.07
2019-04-04T12:53:17.937Z,26.65
2019-04-04T12:55:47.566Z,25.27
2019-04-04T12:58:16.437Z,29.70
2019-04-04T13:00:44.570Z,26.93
2019-04-04T13:03:12.684Z,26.77
2019-04-04T13:05:40.989Z,26.65
2019-04-04T13:08:09.233Z,31.30
2019-04-04T13:10:39.339Z,31.12
2019-04-04T13:13:11.364Z,28.57
2019-04-04T13:15:52.876Z,31.53
2019-04-04T13:21:25.734Z,33.53
2019-04-04T13:23:53.952Z,29.55
2019-04-04T13:26:22.181Z,29.27
2019-04-04T13:28:51.260Z,30.75
2019-04-04T13:31:19.415Z,44.90
2019-04-04T13:33:47.553Z,28.43
2019-04-04T13:36:15.733Z,22.97
2019-04-04T13:38:43.870Z,25.07
2019-04-04T13:41:21.447Z,21.93
2019-04-04T13:43:41.949Z,23.80
2019-04-04T13:46:11.110Z,25.30
2019-04-04T13:48:43.199Z,22.13
2019-04-04T13:51:09.379Z,28.10
2019-04-04T13:53:37.599Z,26.17
2019-04-04T13:56:06.534Z,28.27
2019-04-04T13:58:34.738Z,28.67
2019-04-04T14:01:02.890Z,29.70
2019-04-04T14:03:31.115Z,39.63
2019-04-04T14:06:01.700Z,26.77
2019-04-04T14:08:29.399Z,26.03
2019-04-04T14:10:58.608Z,26.33
2019-04-04T14:13:26.961Z,30.73
2019-04-04T14:15:55.170Z,33.97
2019-04-04T14:18:24.110Z,29.82
2019-04-04T14:21:03.466Z,25.52
2019-04-04T14:23:25.328Z,30.83
2019-04-04T14:25:53.442Z,28.57
2019-04-04T14:28:21.744Z,29.87
2019-04-04T14:30:49.872Z,30.45
2019-04-04T14:33:18.166Z,29.20
2019-04-04T14:35:46.419Z,37.58
2019-04-04T14:38:14.541Z,25.57
2019-04-04T14:40:42.683Z,29.53
2019-04-04T14:43:10.883Z,29.50
2019-04-04T14:45:39.126Z,30.20
2019-04-04T14:48:08.734Z,30.77
2019-04-04T14:50:37.189Z,33.23
2019-04-04T14:53:06.147Z,49.77
2019-04-04T14:55:34.412Z,34.17
2019-04-04T14:58:03.356Z,26.83
2019-04-04T15:00:31.492Z,24.30
2019-04-04T15:02:59.626Z,21.40
2019-04-04T15:05:27.761Z,19.40
2019-04-04T15:07:56.039Z,21.17
2019-04-04T15:10:24.196Z,27.00
2019-04-04T15:12:52.338Z,21.53
2019-04-04T15:15:20.530Z,24.20
2019-04-04T15:17:48.720Z,22.87
2019-04-04T15:20:16.916Z,17.00
2019-04-04T15:22:45.055Z,15.53
2019-04-04T15:25:13.346Z,16.47
2019-04-04T15:27:41.500Z,17.83
2019-04-04T15:30:09.893Z,15.70
2019-04-04T15:32:38.287Z,16.80
2019-04-04T15:35:06.547Z,23.80
2019-04-04T15:37:34.753Z,17.67
2019-04-04T15:40:03.056Z,21.47
2019-04-04T15:42:31.185Z,17.93
2019-04-04T15:44:59.302Z,18.07
2019-04-04T15:47:27.457Z,22.70
2019-04-04T15:49:55.983Z,25.23
2019-04-04T15:52:24.191Z,14.07
2019-04-04T15:54:52.304Z,15.35
2019-04-04T15:57:20.558Z,15.20
2019-04-04T15:59:48.727Z,12.63
2019-04-04T16:02:16.946Z,16.33
2019-04-04T16:04:45.256Z,12.87
2019-04-04T16:07:13.892Z,13.03
2019-04-04T16:09:42.212Z,11.97
2019-04-04T16:12:10.951Z,14.23
2019-04-04T16:14:42.449Z,14.63
2019-04-04T16:17:14.131Z,14.00
2019-04-04T16:19:46.480Z,12.88
2019-04-04T16:22:23.247Z,15.87
2019-04-04T16:24:51.843Z,15.40
2019-04-04T16:27:23.106Z,14.03
2019-04-04T16:29:51.304Z,11.90
2019-04-04T16:32:19.524Z,13.53
2019-04-04T16:34:48.398Z,11.43
2019-04-04T16:37:17.129Z,12.43
2019-04-04T16:39:45.837Z,15.03
2019-04-04T16:42:14.409Z,15.27
2019-04-04T16:44:43.607Z,13.07
2019-04-04T16:49:46.375Z,13.97
2019-04-04T16:52:15.223Z,11.50
2019-04-04T16:54:44.040Z,11.23
2019-04-04T16:57:12.535Z,11.07
2019-04-04T16:59:41.279Z,9.63
2019-04-04T17:02:14.413Z,10.13
2019-04-04T17:04:43.483Z,8.00
2019-04-04T17:07:14.911Z,9.93
2019-04-04T17:10:05.884Z,10.43
2019-04-04T17:12:34.520Z,12.97
2019-04-04T17:15:03.057Z,7.50
2019-04-04T17:17:31.826Z,7.57
2019-04-04T17:20:00.670Z,6.57
2019-04-04T17:22:29.424Z,7.67
2019-04-04T17:24:58.675Z,6.57
2019-04-04T17:27:27.343Z,8.10
2019-04-04T17:29:57.989Z,7.60
2019-04-04T17:32:27.235Z,7.50
2019-04-04T17:34:57.099Z,5.73
2019-04-04T17:37:26.653Z,6.40
2019-04-04T17:39:55.944Z,7.07
2019-04-04T17:42:30.750Z,5.50
2019-04-04T17:44:56.241Z,5.23
2019-04-04T17:47:26.000Z,6.58
2019-04-04T17:49:54.707Z,6.33
2019-04-04T17:52:23.011Z,7.13
2019-04-04T17:54:51.156Z,7.00
2019-04-04T17:57:19.289Z,6.70
2019-04-04T17:59:47.474Z,17.20
2019-04-04T18:02:15.704Z,19.43
2019-04-04T18:04:48.459Z,27.73
2019-04-04T18:07:13.802Z,13.10
2019-04-04T18:09:45.473Z,9.80
2019-04-04T18:12:12.723Z,7.93
2019-04-04T18:14:41.031Z,7.00
2019-04-04T18:17:09.243Z,7.67
2019-04-04T18:19:37.395Z,8.07
2019-04-04T18:22:22.200Z,7.30
2019-04-04T18:24:51.330Z,9.10
2019-04-04T18:27:49.703Z,8.50
2019-04-04T18:30:18.098Z,9.38
2019-04-04T18:32:46.330Z,9.67
2019-04-04T18:35:15.001Z,9.40
2019-04-04T18:37:43.785Z,8.30
2019-04-04T18:40:12.099Z,13.13
2019-04-04T18:42:52.164Z,11.47
2019-04-04T18:45:10.570Z,14.68
2019-04-04T18:47:38.730Z,10.30
2019-04-04T18:50:07.420Z,10.87
2019-04-04T18:52:35.685Z,12.13
2019-04-04T18:55:05.371Z,8.83
2019-04-04T18:57:33.573Z,16.20
2019-04-04T19:00:01.754Z,11.57
2019-04-04T19:02:30.427Z,10.63
2019-04-04T19:04:58.630Z,10.73
2019-04-04T19:07:38.804Z,14.67
2019-04-04T19:09:59.664Z,19.80
2019-04-04T19:12:27.902Z,11.45
2019-04-04T19:14:56.097Z,9.25
2019-04-04T19:17:24.249Z,10.57
2019-04-04T19:19:53.198Z,9.48
2019-04-04T19:22:21.418Z,13.93
2019-04-04T19:24:49.978Z,8.87
2019-04-04T19:27:18.260Z,11.77
2019-04-04T19:29:46.548Z,9.63
2019-04-04T19:32:14.808Z,10.13
2019-04-04T19:34:43.817Z,10.43
2019-04-04T19:37:12.134Z,9.35
2019-04-04T19:39:40.336Z,12.20
2019-04-04T19:42:08.684Z,11.22
2019-04-04T19:44:36.945Z,8.30
2019-04-04T19:47:06.017Z,10.10
2019-04-04T19:49:34.203Z,12.80
2019-04-04T19:52:02.355Z,14.93
2019-04-04T19:54:30.522Z,12.75
2019-04-04T19:56:58.719Z,9.45
2019-04-04T19:59:26.873Z,8.73
2019-04-04T20:01:55.170Z,8.53
2019-04-04T20:04:24.104Z,12.30
2019-04-04T20:06:52.318Z,11.23
2019-04-04T20:09:20.525Z,8.50
2019-04-04T20:11:48.726Z,7.23
2019-04-04T20:14:17.025Z,8.27
2019-04-04T20:16:45.146Z,7.83
2019-04-04T20:19:13.384Z,8.13
2019-04-04T20:21:42.178Z,8.40
2019-04-04T20:24:10.424Z,8.70
2019-04-04T20:26:38.586Z,8.40
2019-04-04T20:29:06.790Z,13.07
2019-04-04T20:31:34.993Z,9.10
2019-04-04T20:34:05.798Z,9.60
2019-04-04T20:36:33.079Z,7.73
2019-04-04T20:39:02.102Z,30.77
2019-04-04T20:41:30.405Z,13.50
2019-04-04T20:43:58.528Z,11.37
2019-04-04T20:46:26.718Z,9.23
2019-04-04T20:48:54.910Z,7.77
2019-04-04T20:51:23.130Z,7.17
2019-04-04T20:53:51.253Z,9.63
2019-04-04T20:56:19.482Z,7.77
2019-04-04T21:03:56.449Z,20.23
2019-04-04T21:06:25.366Z,28.03
2019-04-04T21:08:53.561Z,12.77
2019-04-04T21:11:21.752Z,11.10
2019-04-04T21:13:56.540Z,11.33
2019-04-04T21:16:20.048Z,9.17
2019-04-04T21:18:48.266Z,8.97
2019-04-04T21:21:17.182Z,9.93
2019-04-04T21:23:48.431Z,10.33
2019-04-04T21:31:26.482Z,10.68
2019-04-04T21:33:54.610Z,8.93
2019-04-04T21:36:22.814Z,12.50
2019-04-04T21:38:50.948Z,11.03
2019-04-04T21:41:19.129Z,10.53
2019-04-04T21:43:47.327Z,9.33
2019-04-04T21:46:15.558Z,9.43
2019-04-04T21:48:44.458Z,9.67
2019-04-04T21:51:12.583Z,10.37
2019-04-04T21:53:40.747Z,13.00
2019-04-04T21:56:08.860Z,9.30
2019-04-04T21:58:37.112Z,13.80
2019-04-04T22:01:05.683Z,11.45
2019-04-04T22:03:36.562Z,10.63
2019-04-04T22:06:03.835Z,8.93
2019-04-04T22:08:31.968Z,9.17
2019-04-04T22:11:00.087Z,10.43
2019-04-04T22:13:28.213Z,11.63
2019-04-04T22:15:56.404Z,11.83
2019-04-04T22:18:24.595Z,9.47
2019-04-04T22:20:52.703Z,9.50
2019-04-04T22:23:20.829Z,10.53
2019-04-04T22:25:48.960Z,9.90
2019-04-04T22:28:17.144Z,12.53
2019-04-04T22:30:45.314Z,10.60
2019-04-04T22:33:13.445Z,13.10
2019-04-04T22:35:41.703Z,10.40
2019-04-04T22:38:09.836Z,10.47
2019-04-04T22:40:38.066Z,10.80
2019-04-04T22:43:06.309Z,12.90
2019-04-04T22:45:35.204Z,8.93
2019-04-04T22:48:03.429Z,11.40
2019-04-04T22:50:31.560Z,11.87
2019-04-04T22:52:59.718Z,9.98
2019-04-04T22:55:27.937Z,10.17
2019-04-04T22:57:56.083Z,11.78
2019-04-04T23:00:24.255Z,11.10
2019-04-04T23:02:52.384Z,13.60
2019-04-04T23:05:20.572Z,15.67
2019-04-04T23:07:48.701Z,12.63
2019-04-04T23:10:16.933Z,11.70
2019-04-04T23:12:45.073Z,11.33
2019-04-04T23:15:13.758Z,11.87
2019-04-04T23:17:41.970Z,13.07
2019-04-04T23:20:10.183Z,13.13
2019-04-04T23:22:38.401Z,14.07
2019-04-04T23:25:07.659Z,11.73
2019-04-04T23:27:35.819Z,14.40
2019-04-04T23:30:05.232Z,13.07
2019-04-04T23:32:33.384Z,13.87
2019-04-04T23:35:01.524Z,10.47
2019-04-04T23:37:29.655Z,12.43
2019-04-04T23:39:57.805Z,11.87
2019-04-04T23:42:26.317Z,11.53
2019-04-04T23:45:00.968Z,13.97
2019-04-04T23:47:25.033Z,14.03
2019-04-04T23:49:53.169Z,11.37
2019-04-04T23:52:21.313Z,12.97
2019-04-04T23:54:49.443Z,12.75
2019-04-04T23:57:17.557Z,13.20
2019-04-04T23:59:45.675Z,12.28
